• vieta
  • image
  • image
  • image
mod_vvisit_countermod_vvisit_countermod_vvisit_countermod_vvisit_countermod_vvisit_countermod_vvisit_counter
mod_vvisit_counterŠiandien160
mod_vvisit_counterVakar414
mod_vvisit_counterŠią savaitę2483
mod_vvisit_counterPraėjusią savaitę3701
mod_vvisit_counterŠį mėnesį13730
mod_vvisit_counterPraėjusį mėnesį19965
mod_vvisit_counterViso907544

Mes turime: 26 svečius, 1 bots online
Jūsų IP: 54.80.68.137
 , 
Šiandien: Geg 25, 2018
Oro uostas / Oro uostas / Prašymai atskristi

Prašymai atskristi

Visi civilinių ir karinių orlaivių skrydžiai leidžiami tik gavus Aviacijos bazės administracijos leidimą.

Prašymą skrydžiui į Šiaulių oro uostą, pateiktą šio Oro navigacijos informacijos aplinkraščio (AIC) priede, siųsti Aviacijos bazės Sparno operacijų centrui (WOC)

Faks.: +370 41 39 80 14,

AFS: EYSAZPZX arba

el.paštas: Šis el.pašto adresas yra apsaugotas nuo Spam'o, jums reikia įjungti Javaskriptą, kad matytumėte tai

ne vėliau kaip 24 valandos prieš planuojamą skrydį, o skrydžiams savaitgaliais ir švenčių dienomis – paskutinę darbo dieną.

Telefonas pasiteirauti (8 41) 42 06 13.

 

Nuoroda į PPR formą: http://www.ans.lt/media/cms_page_media/75/ey_circ_2013_a_003_lt.pdf


Šiandien

Penktadienis, 25 Gegužė 2018

Orų prognozė aviacijai

[source: ADDS]
METAR
EYSA 250620Z 06007KT CAVOK 17/13 Q1026 BLU NOSIG =
TAF
SR / SS: 02:03 / 18:45 UTC (EYSA 2018-05-25)

Paieška

Lankytojai

Mes turime 27 svečius online

tic logo lt